createdAt,value
2018-06-12T00:00:14.819Z,99331.00
2018-06-12T00:02:55.326Z,99333.00
2018-06-12T00:05:35.827Z,99331.00
2018-06-12T00:08:16.188Z,99334.00
2018-06-12T00:10:56.560Z,99328.00
2018-06-12T00:13:37.260Z,99328.00
2018-06-12T00:16:18.036Z,99321.00
2018-06-12T00:18:58.897Z,99324.00
2018-06-12T00:21:39.303Z,99324.00
2018-06-12T00:24:20.111Z,99323.00
2018-06-12T00:27:00.573Z,99322.00
2018-06-12T00:29:41.277Z,99325.00
2018-06-12T00:32:22.214Z,99323.00
2018-06-12T00:35:02.566Z,99329.00
2018-06-12T00:37:43.224Z,99335.00
2018-06-12T00:40:25.421Z,99335.00
2018-06-12T00:43:06.251Z,99333.00
2018-06-12T00:45:46.660Z,99337.00
2018-06-12T00:48:27.003Z,99343.00
2018-06-12T00:51:07.667Z,99343.00
2018-06-12T00:53:48.141Z,99348.00
2018-06-12T00:56:45.723Z,99349.00
2018-06-12T00:59:26.516Z,99354.00
2018-06-12T01:02:07.742Z,99350.00
2018-06-12T01:04:48.184Z,99356.00
2018-06-12T01:07:28.677Z,99355.00
2018-06-12T01:10:09.246Z,99353.00
2018-06-12T01:12:49.934Z,99357.00
2018-06-12T01:15:30.755Z,99357.00
2018-06-12T01:18:12.022Z,99359.00
2018-06-12T01:20:52.379Z,99360.00
2018-06-12T01:23:33.054Z,99358.00
2018-06-12T01:26:13.562Z,99364.00
2018-06-12T01:28:54.296Z,99367.00
2018-06-12T01:31:34.791Z,99360.00
2018-06-12T01:34:15.829Z,99366.00
2018-06-12T01:36:56.341Z,99367.00
2018-06-12T01:39:36.656Z,99367.00
2018-06-12T01:42:17.642Z,99361.00
2018-06-12T01:44:58.452Z,99363.00
2018-06-12T01:47:38.788Z,99369.00
2018-06-12T01:50:19.527Z,99362.00
2018-06-12T01:53:00.272Z,99361.00
2018-06-12T01:55:41.776Z,99364.00
2018-06-12T01:58:22.169Z,99363.00
2018-06-12T02:01:02.516Z,99353.00
2018-06-12T02:03:43.488Z,99362.00
2018-06-12T02:06:24.218Z,99362.00
2018-06-12T02:09:07.150Z,99360.00
2018-06-12T02:11:47.525Z,99364.00
2018-06-12T02:14:28.294Z,99365.00
2018-06-12T02:17:08.965Z,99368.00
2018-06-12T02:19:49.465Z,99371.00
2018-06-12T02:22:30.118Z,99364.00
2018-06-12T02:25:10.683Z,99365.00
2018-06-12T02:27:51.031Z,99367.00
2018-06-12T02:30:31.770Z,99364.00
2018-06-12T02:33:12.181Z,99373.00
2018-06-12T02:35:52.741Z,99372.00
2018-06-12T02:38:33.513Z,99377.00
2018-06-12T02:41:14.028Z,99371.00
2018-06-12T02:43:54.764Z,99372.00
2018-06-12T02:46:35.494Z,99371.00
2018-06-12T02:49:16.081Z,99371.00
2018-06-12T02:51:56.754Z,99375.00
2018-06-12T02:54:37.122Z,99381.00
2018-06-12T02:57:17.885Z,99382.00
2018-06-12T02:59:58.774Z,99382.00
2018-06-12T03:02:39.107Z,99382.00
2018-06-12T03:05:19.466Z,99380.00
2018-06-12T03:08:00.640Z,99383.00
2018-06-12T03:10:41.105Z,99385.00
2018-06-12T03:13:21.813Z,99387.00
2018-06-12T03:16:02.201Z,99385.00
2018-06-12T03:18:42.550Z,99380.00
2018-06-12T03:21:23.371Z,99384.00
2018-06-12T03:24:03.845Z,99386.00
2018-06-12T03:26:44.196Z,99389.00
2018-06-12T03:29:24.575Z,99391.00
2018-06-12T03:32:08.844Z,99397.00
2018-06-12T03:34:49.203Z,99396.00
2018-06-12T03:37:30.019Z,99392.00
2018-06-12T03:40:10.560Z,99399.00
2018-06-12T03:42:51.395Z,99394.00
2018-06-12T03:45:31.930Z,99390.00
2018-06-12T03:48:12.741Z,99401.00
2018-06-12T03:50:53.160Z,99409.00
2018-06-12T03:53:34.393Z,99404.00
2018-06-12T03:56:14.904Z,99402.00
2018-06-12T03:58:55.597Z,99406.00
2018-06-12T04:01:36.426Z,99400.00
2018-06-12T04:04:17.299Z,99411.00
2018-06-12T04:06:58.086Z,99405.00
2018-06-12T04:09:38.605Z,99412.00
2018-06-12T04:12:18.883Z,99419.00
2018-06-12T04:14:59.327Z,99425.00
2018-06-12T04:17:40.466Z,99422.00
2018-06-12T04:20:21.323Z,99423.00
2018-06-12T04:23:01.876Z,99420.00
2018-06-12T04:25:42.565Z,99424.00
2018-06-12T04:28:23.574Z,99430.00
2018-06-12T04:31:04.200Z,99432.00
2018-06-12T04:33:44.671Z,99442.00
2018-06-12T04:36:25.042Z,99433.00
2018-06-12T04:39:07.693Z,99438.00
2018-06-12T04:41:48.176Z,99442.00
2018-06-12T04:44:28.580Z,99440.00
2018-06-12T04:47:09.079Z,99440.00
2018-06-12T04:49:49.436Z,99442.00
2018-06-12T04:52:30.094Z,99454.00
2018-06-12T04:55:10.769Z,99450.00
2018-06-12T04:57:51.136Z,99447.00
2018-06-12T05:00:32.013Z,99446.00
2018-06-12T05:03:13.156Z,99453.00
2018-06-12T05:05:53.528Z,99460.00
2018-06-12T05:08:40.192Z,99474.00
2018-06-12T05:11:20.771Z,99469.00
2018-06-12T05:14:01.323Z,99475.00
2018-06-12T05:16:42.455Z,99479.00
2018-06-12T05:19:23.711Z,99480.00
2018-06-12T05:22:04.048Z,99477.00
2018-06-12T05:24:44.675Z,99480.00
2018-06-12T05:27:25.113Z,99479.00
2018-06-12T05:30:05.972Z,99478.00
2018-06-12T05:32:46.466Z,99478.00
2018-06-12T05:35:27.296Z,99485.00
2018-06-12T05:38:07.787Z,99492.00
2018-06-12T05:40:48.305Z,99498.00
2018-06-12T05:43:29.025Z,99506.00
2018-06-12T05:46:09.859Z,99508.00
2018-06-12T05:48:50.352Z,99509.00
2018-06-12T05:51:31.112Z,99519.00
2018-06-12T05:54:12.201Z,99523.00
2018-06-12T05:56:52.569Z,99523.00
2018-06-12T05:59:33.185Z,99534.00
2018-06-12T06:02:14.148Z,99523.00
2018-06-12T06:04:54.780Z,99527.00
2018-06-12T06:07:35.265Z,99534.00
2018-06-12T06:10:15.768Z,99541.00
2018-06-12T06:12:56.420Z,99542.00
2018-06-12T06:15:37.229Z,99534.00
2018-06-12T06:18:17.856Z,99532.00
2018-06-12T06:20:58.659Z,99537.00
2018-06-12T06:23:39.492Z,99541.00
2018-06-12T06:26:19.901Z,99545.00
2018-06-12T06:29:00.968Z,99543.00
2018-06-12T06:31:41.749Z,99549.00
2018-06-12T06:34:22.501Z,99551.00
2018-06-12T06:37:03.172Z,99554.00
2018-06-12T06:39:44.028Z,99555.00
2018-06-12T06:42:24.779Z,99556.00
2018-06-12T06:45:05.737Z,99559.00
2018-06-12T06:47:46.312Z,99561.00
2018-06-12T06:50:26.791Z,99560.00
2018-06-12T06:53:07.852Z,99564.00
2018-06-12T06:55:48.317Z,99567.00
2018-06-12T06:58:28.820Z,99565.00
2018-06-12T07:01:09.332Z,99570.00
2018-06-12T07:03:49.937Z,99569.00
2018-06-12T07:06:31.017Z,99567.00
2018-06-12T07:09:12.169Z,99567.00
2018-06-12T07:11:52.958Z,99569.00
2018-06-12T07:14:33.670Z,99570.00
2018-06-12T07:17:14.034Z,99574.00
2018-06-12T07:19:54.463Z,99578.00
2018-06-12T07:22:35.132Z,99580.00
2018-06-12T07:25:15.661Z,99581.00
2018-06-12T07:27:56.322Z,99577.00
2018-06-12T07:30:37.383Z,99587.00
2018-06-12T07:33:17.833Z,99585.00
2018-06-12T07:35:58.932Z,99588.00
2018-06-12T07:38:40.230Z,99591.00
2018-06-12T07:41:21.033Z,99589.00
2018-06-12T07:44:01.833Z,99588.00
2018-06-12T07:46:42.024Z,99577.00
2018-06-12T07:49:22.672Z,99578.00
2018-06-12T07:52:03.095Z,99574.00
2018-06-12T07:54:43.561Z,99580.00
2018-06-12T07:57:24.117Z,99573.00
2018-06-12T08:00:04.580Z,99571.00
2018-06-12T08:02:45.061Z,99571.00
2018-06-12T08:05:25.857Z,99569.00
2018-06-12T08:08:07.006Z,99568.00
2018-06-12T08:10:48.148Z,99574.00
2018-06-12T08:13:28.616Z,99577.00
2018-06-12T08:16:09.096Z,99574.00
2018-06-12T08:18:49.517Z,99575.00
2018-06-12T08:21:30.271Z,99579.00
2018-06-12T08:24:11.048Z,99578.00
2018-06-12T08:26:51.695Z,99574.00
2018-06-12T08:29:32.137Z,99575.00
2018-06-12T08:32:13.009Z,99570.00
2018-06-12T08:34:53.440Z,99573.00
2018-06-12T08:37:34.116Z,99574.00
2018-06-12T08:40:15.090Z,99577.00
2018-06-12T08:42:56.077Z,99576.00
2018-06-12T08:45:36.602Z,99579.00
2018-06-12T08:48:17.289Z,99580.00
2018-06-12T08:50:57.887Z,99578.00
2018-06-12T08:53:39.145Z,99575.00
2018-06-12T08:56:20.077Z,99583.00
2018-06-12T08:59:00.659Z,99579.00
2018-06-12T09:01:41.024Z,99581.00
2018-06-12T09:04:21.693Z,99579.00
2018-06-12T09:07:02.053Z,99576.00
2018-06-12T09:09:42.575Z,99577.00
2018-06-12T09:12:23.822Z,99577.00
2018-06-12T09:15:04.568Z,99575.00
2018-06-12T09:17:45.298Z,99569.00
2018-06-12T09:20:25.964Z,99569.00
2018-06-12T09:23:06.787Z,99581.00
2018-06-12T09:25:47.488Z,99586.00
2018-06-12T09:28:29.342Z,99580.00
2018-06-12T09:31:10.135Z,99583.00
2018-06-12T09:33:50.485Z,99572.00
2018-06-12T09:36:35.582Z,99584.00
2018-06-12T09:39:17.480Z,99582.00
2018-06-12T09:41:58.166Z,99588.00
2018-06-12T09:44:39.324Z,99579.00
2018-06-12T09:47:19.657Z,99573.00
2018-06-12T09:49:59.987Z,99584.00
2018-06-12T09:52:40.744Z,99585.00
2018-06-12T09:55:21.666Z,99582.00
2018-06-12T09:58:02.517Z,99581.00
2018-06-12T10:00:48.211Z,99582.00
2018-06-12T10:03:28.652Z,99579.00
2018-06-12T10:06:09.104Z,99583.00
2018-06-12T10:08:49.856Z,99580.00
2018-06-12T10:11:31.153Z,99581.00
2018-06-12T10:14:12.029Z,99585.00
2018-06-12T10:16:52.847Z,99581.00
2018-06-12T10:19:33.544Z,99582.00
2018-06-12T10:22:14.197Z,99586.00
2018-06-12T10:24:54.578Z,99586.00
2018-06-12T10:27:35.119Z,99579.00
2018-06-12T10:30:15.620Z,99577.00
2018-06-12T10:32:56.650Z,99585.00
2018-06-12T10:35:37.252Z,99581.00
2018-06-12T10:38:17.974Z,99584.00
2018-06-12T10:40:58.503Z,99584.00
2018-06-12T10:43:39.081Z,99587.00
2018-06-12T10:46:19.768Z,99588.00
2018-06-12T10:49:00.240Z,99585.00
2018-06-12T10:51:40.776Z,99586.00
2018-06-12T10:54:21.249Z,99577.00
2018-06-12T10:57:01.577Z,99573.00
2018-06-12T10:59:42.251Z,99567.00
2018-06-12T11:02:22.941Z,99576.00
2018-06-12T11:05:03.947Z,99575.00
2018-06-12T11:07:44.787Z,99580.00
2018-06-12T11:10:25.708Z,99576.00
2018-06-12T11:13:06.732Z,99578.00
2018-06-12T11:15:46.887Z,99567.00
2018-06-12T11:18:27.421Z,99578.00
2018-06-12T11:21:07.815Z,99572.00
2018-06-12T11:23:48.516Z,99562.00
2018-06-12T11:26:29.356Z,99579.00
2018-06-12T11:29:10.155Z,99568.00
2018-06-12T11:31:50.757Z,99572.00
2018-06-12T11:34:31.393Z,99570.00
2018-06-12T11:37:12.426Z,99572.00
2018-06-12T11:39:52.938Z,99570.00
2018-06-12T11:42:33.651Z,99568.00
2018-06-12T11:45:14.699Z,99571.00
2018-06-12T11:47:55.079Z,99551.00
2018-06-12T11:50:36.058Z,99555.00
2018-06-12T11:53:17.235Z,99552.00
2018-06-12T11:55:59.373Z,99549.00
2018-06-12T11:58:40.418Z,99545.00
2018-06-12T12:01:20.970Z,99560.00
2018-06-12T12:04:01.354Z,99552.00
2018-06-12T12:06:41.696Z,99551.00
2018-06-12T12:09:22.948Z,99536.00
2018-06-12T12:12:04.020Z,99526.00
2018-06-12T12:14:44.876Z,99530.00
2018-06-12T12:17:25.769Z,99535.00
2018-06-12T12:20:06.330Z,99540.00
2018-06-12T12:22:46.865Z,99524.00
2018-06-12T12:25:27.776Z,99522.00
2018-06-12T12:28:08.544Z,99525.00
2018-06-12T12:30:49.012Z,99523.00
2018-06-12T12:33:29.759Z,99516.00
2018-06-12T12:36:10.189Z,99518.00
2018-06-12T12:38:50.891Z,99513.00
2018-06-12T12:41:31.121Z,99524.00
2018-06-12T12:44:11.559Z,99529.00
2018-06-12T12:46:52.088Z,99526.00
2018-06-12T12:49:32.593Z,99514.00
2018-06-12T12:52:12.725Z,99518.00
2018-06-12T12:54:53.244Z,99519.00
2018-06-12T12:57:33.769Z,99516.00
2018-06-12T13:00:14.744Z,99510.00
2018-06-12T13:02:55.465Z,99512.00
2018-06-12T13:05:36.204Z,99512.00
2018-06-12T13:08:16.729Z,99510.00
2018-06-12T13:10:57.405Z,99509.00
2018-06-12T13:13:37.761Z,99511.00
2018-06-12T13:16:18.080Z,99525.00
2018-06-12T13:18:58.860Z,99528.00
2018-06-12T13:21:39.156Z,99522.00
2018-06-12T13:24:20.205Z,99512.00
2018-06-12T13:27:00.679Z,99515.00
2018-06-12T13:29:41.307Z,99517.00
2018-06-12T13:32:22.081Z,99513.00
2018-06-12T13:35:02.404Z,99511.00
2018-06-12T13:37:43.421Z,99507.00
2018-06-12T13:40:24.222Z,99508.00
2018-06-12T13:43:04.805Z,99498.00
2018-06-12T13:45:45.584Z,99504.00
2018-06-12T13:48:26.327Z,99498.00
2018-06-12T13:51:07.412Z,99498.00
2018-06-12T13:53:48.071Z,99496.00
2018-06-12T13:56:28.854Z,99488.00
2018-06-12T13:59:09.713Z,99485.00
2018-06-12T14:01:50.004Z,99489.00
2018-06-12T14:04:30.601Z,99488.00
2018-06-12T14:07:11.202Z,99469.00
2018-06-12T14:09:51.989Z,99472.00
2018-06-12T14:12:32.663Z,99473.00
2018-06-12T14:15:13.362Z,99460.00
2018-06-12T14:17:54.609Z,99460.00
2018-06-12T14:20:35.273Z,99469.00
2018-06-12T14:23:16.311Z,99467.00
2018-06-12T14:25:56.749Z,99464.00
2018-06-12T14:28:37.984Z,99453.00
2018-06-12T14:31:18.797Z,99463.00
2018-06-12T14:33:59.292Z,99463.00
2018-06-12T14:36:37.068Z,99463.00
2018-06-12T14:39:13.676Z,99460.00
2018-06-12T14:41:51.560Z,99461.00
2018-06-12T14:44:28.259Z,99458.00
2018-06-12T14:47:06.045Z,99455.00
2018-06-12T14:49:45.320Z,99463.00
2018-06-12T14:52:22.845Z,99460.00
2018-06-12T14:54:59.293Z,99461.00
2018-06-12T14:57:36.857Z,99451.00
2018-06-12T15:00:14.206Z,99450.00
2018-06-12T15:02:52.160Z,99445.00
2018-06-12T15:05:28.600Z,99443.00
2018-06-12T15:08:05.464Z,99443.00
2018-06-12T15:10:43.351Z,99441.00
2018-06-12T15:13:20.637Z,99443.00
2018-06-12T15:15:58.941Z,99437.00
2018-06-12T15:18:35.546Z,99436.00
2018-06-12T15:21:11.904Z,99438.00
2018-06-12T15:23:49.410Z,99430.00
2018-06-12T15:26:26.754Z,99424.00
2018-06-12T15:29:04.769Z,99418.00
2018-06-12T15:31:42.582Z,99422.00
2018-06-12T15:34:19.121Z,99416.00
2018-06-12T15:36:56.197Z,99417.00
2018-06-12T15:39:32.592Z,99411.00
2018-06-12T15:42:09.485Z,99415.00
2018-06-12T15:44:45.735Z,99418.00
2018-06-12T15:47:23.843Z,99416.00
2018-06-12T15:50:00.840Z,99413.00
2018-06-12T15:52:38.553Z,99403.00
2018-06-12T15:55:16.057Z,99404.00
2018-06-12T15:57:52.625Z,99408.00
2018-06-12T16:00:30.353Z,99402.00
2018-06-12T16:03:07.912Z,99405.00
2018-06-12T16:05:45.973Z,99401.00
2018-06-12T16:08:23.961Z,99393.00
2018-06-12T16:11:02.202Z,99396.00
2018-06-12T16:13:39.192Z,99396.00
2018-06-12T16:16:16.118Z,99398.00
2018-06-12T16:18:53.448Z,99402.00
2018-06-12T16:21:29.436Z,99406.00
2018-06-12T16:24:07.420Z,99405.00
2018-06-12T16:26:44.487Z,99410.00
2018-06-12T16:29:22.241Z,99408.00
2018-06-12T16:31:59.672Z,99406.00
2018-06-12T16:34:36.084Z,99408.00
2018-06-12T16:37:12.888Z,99413.00
2018-06-12T16:39:48.942Z,99411.00
2018-06-12T16:42:26.764Z,99415.00
2018-06-12T16:45:04.704Z,99416.00
2018-06-12T16:47:42.069Z,99413.00
2018-06-12T16:50:19.205Z,99412.00
2018-06-12T16:52:55.725Z,99410.00
2018-06-12T16:55:32.243Z,99409.00
2018-06-12T16:58:08.736Z,99411.00
2018-06-12T17:00:45.547Z,99408.00
2018-06-12T17:03:22.284Z,99400.00
2018-06-12T17:05:58.974Z,99402.00
2018-06-12T17:08:36.207Z,99408.00
2018-06-12T17:11:13.466Z,99414.00
2018-06-12T17:13:50.630Z,99405.00
2018-06-12T17:16:27.699Z,99400.00
2018-06-12T17:19:03.971Z,99400.00
2018-06-12T17:21:41.336Z,99398.00
2018-06-12T17:24:19.866Z,99395.00
2018-06-12T17:26:57.412Z,99403.00
2018-06-12T17:29:33.813Z,99401.00
2018-06-12T17:32:10.427Z,99402.00
2018-06-12T17:34:48.137Z,99394.00
2018-06-12T17:37:23.954Z,99391.00
2018-06-12T17:40:01.899Z,99393.00
2018-06-12T17:42:40.250Z,99397.00
2018-06-12T17:45:16.094Z,99399.00
2018-06-12T17:47:53.925Z,99395.00
2018-06-12T17:50:31.309Z,99401.00
2018-06-12T17:53:08.945Z,99398.00
2018-06-12T17:55:45.108Z,99399.00
2018-06-12T17:58:21.413Z,99401.00
2018-06-12T18:00:58.669Z,99404.00
2018-06-12T18:03:35.953Z,99402.00
2018-06-12T18:06:11.797Z,99407.00
2018-06-12T18:08:48.798Z,99409.00
2018-06-12T18:11:25.515Z,99418.00
2018-06-12T18:14:01.848Z,99417.00
2018-06-12T18:16:39.389Z,99424.00
2018-06-12T18:19:18.101Z,99431.00
2018-06-12T18:21:54.600Z,99438.00
2018-06-12T18:24:31.248Z,99440.00
2018-06-12T18:27:09.595Z,99437.00
2018-06-12T18:29:46.436Z,99440.00
2018-06-12T18:32:24.244Z,99439.00
2018-06-12T18:35:00.603Z,99445.00
2018-06-12T18:37:36.235Z,99449.00
2018-06-12T18:40:13.870Z,99449.00
2018-06-12T18:42:50.753Z,99445.00
2018-06-12T18:45:26.827Z,99444.00
2018-06-12T18:48:03.637Z,99447.00
2018-06-12T18:50:41.054Z,99451.00
2018-06-12T18:53:17.088Z,99456.00
2018-06-12T18:55:55.499Z,99464.00
2018-06-12T18:58:31.907Z,99458.00
2018-06-12T19:01:08.390Z,99456.00
2018-06-12T19:03:44.725Z,99455.00
2018-06-12T19:06:23.048Z,99457.00
2018-06-12T19:09:00.774Z,99459.00
2018-06-12T19:11:37.229Z,99462.00
2018-06-12T19:14:13.710Z,99468.00
2018-06-12T19:16:49.730Z,99469.00
2018-06-12T19:19:25.818Z,99467.00
2018-06-12T19:22:05.531Z,99462.00
2018-06-12T19:24:41.476Z,99467.00
2018-06-12T19:27:18.179Z,99474.00
2018-06-12T19:29:55.787Z,99482.00
2018-06-12T19:32:31.818Z,99491.00
2018-06-12T19:35:09.280Z,99491.00
2018-06-12T19:37:46.168Z,99494.00
2018-06-12T19:40:22.290Z,99507.00
2018-06-12T19:42:58.788Z,99497.00
2018-06-12T19:45:35.417Z,99497.00
2018-06-12T19:48:12.165Z,99503.00
2018-06-12T19:50:48.555Z,99502.00
2018-06-12T19:53:24.662Z,99506.00
2018-06-12T19:56:00.197Z,99503.00
2018-06-12T19:58:37.787Z,99508.00
2018-06-12T20:01:19.860Z,99498.00
2018-06-12T20:03:56.233Z,99496.00
2018-06-12T20:06:33.410Z,99500.00
2018-06-12T20:09:09.893Z,99498.00
2018-06-12T20:11:46.548Z,99496.00
2018-06-12T20:14:23.220Z,99500.00
2018-06-12T20:16:59.303Z,99502.00
2018-06-12T20:19:36.980Z,99504.00
2018-06-12T20:22:13.355Z,99504.00
2018-06-12T20:24:48.984Z,99498.00
2018-06-12T20:27:27.311Z,99496.00
2018-06-12T20:30:03.897Z,99498.00
2018-06-12T20:32:41.682Z,99497.00
2018-06-12T20:35:18.039Z,99499.00
2018-06-12T20:37:54.022Z,99499.00
2018-06-12T20:40:31.643Z,99497.00
2018-06-12T20:43:08.122Z,99500.00
2018-06-12T20:45:44.650Z,99500.00
2018-06-12T20:48:22.090Z,99500.00
2018-06-12T20:51:00.264Z,99497.00
2018-06-12T20:53:36.602Z,99496.00
2018-06-12T20:56:12.414Z,99499.00
2018-06-12T20:58:49.194Z,99500.00
2018-06-12T21:01:25.434Z,99498.00
2018-06-12T21:04:01.569Z,99499.00
2018-06-12T21:06:38.469Z,99497.00
2018-06-12T21:09:15.811Z,99501.00
2018-06-12T21:11:52.843Z,99498.00
2018-06-12T21:14:28.784Z,99498.00
2018-06-12T21:17:05.929Z,99502.00
2018-06-12T21:19:41.784Z,99496.00
2018-06-12T21:22:19.560Z,99492.00
2018-06-12T21:24:55.461Z,99493.00
2018-06-12T21:27:31.488Z,99499.00
2018-06-12T21:30:07.900Z,99500.00
2018-06-12T21:32:43.644Z,99498.00
2018-06-12T21:35:20.335Z,99500.00
2018-06-12T21:37:57.023Z,99500.00
2018-06-12T21:40:35.037Z,99507.00
2018-06-12T21:43:11.136Z,99506.00
2018-06-12T21:45:47.664Z,99505.00
2018-06-12T21:48:23.751Z,99508.00
2018-06-12T21:50:59.983Z,99509.00
2018-06-12T21:53:36.206Z,99509.00
2018-06-12T21:56:12.921Z,99511.00
2018-06-12T21:58:50.319Z,99513.00
2018-06-12T22:01:26.501Z,99511.00
2018-06-12T22:04:03.157Z,99513.00
2018-06-12T22:06:40.496Z,99514.00
2018-06-12T22:09:17.750Z,99511.00
2018-06-12T22:11:54.048Z,99512.00
2018-06-12T22:14:30.643Z,99512.00
2018-06-12T22:17:07.134Z,99511.00
2018-06-12T22:19:43.895Z,99511.00
2018-06-12T22:22:20.852Z,99516.00
2018-06-12T22:24:57.504Z,99520.00
2018-06-12T22:27:33.799Z,99519.00
2018-06-12T22:30:10.110Z,99522.00
2018-06-12T22:32:47.440Z,99527.00
2018-06-12T22:35:25.474Z,99524.00
2018-06-12T22:38:02.790Z,99528.00
2018-06-12T22:40:40.795Z,99524.00
2018-06-12T22:43:18.292Z,99530.00
2018-06-12T22:45:56.042Z,99534.00
2018-06-12T22:48:32.082Z,99544.00
2018-06-12T22:51:08.501Z,99541.00
2018-06-12T22:53:46.293Z,99541.00
2018-06-12T22:56:24.305Z,99541.00
2018-06-12T22:59:00.295Z,99534.00
2018-06-12T23:01:36.624Z,99540.00
2018-06-12T23:04:13.044Z,99544.00
2018-06-12T23:06:49.996Z,99546.00
2018-06-12T23:09:26.660Z,99549.00
2018-06-12T23:12:03.689Z,99545.00
2018-06-12T23:14:40.097Z,99551.00
2018-06-12T23:17:16.490Z,99552.00
2018-06-12T23:20:09.334Z,99555.00
2018-06-12T23:22:45.842Z,99556.00
2018-06-12T23:25:22.130Z,99561.00
2018-06-12T23:27:58.125Z,99560.00
2018-06-12T23:30:34.443Z,99555.00
2018-06-12T23:33:12.418Z,99549.00
2018-06-12T23:35:49.388Z,99551.00
2018-06-12T23:38:25.771Z,99551.00
2018-06-12T23:41:02.324Z,99552.00
2018-06-12T23:43:39.591Z,99551.00
2018-06-12T23:46:17.256Z,99551.00
2018-06-12T23:48:53.655Z,99549.00
2018-06-12T23:51:30.399Z,99555.00
2018-06-12T23:54:06.717Z,99550.00
2018-06-12T23:56:43.053Z,99551.00
2018-06-12T23:59:22.145Z,99549.00
